Time;durP1;ratioP1;P1;durP2;ratioP2;P2;SDS_P1;SDS_P2;PMS_P1;PMS_P2;Temp;Humidity;BMP_temperature;BMP_pressure;BME280_temperature;BME280_humidity;BME280_pressure;Samples;Min_cycle;Max_cycle;Signal;HPM_P1;HPM_P2
2023/08/14 00:02:01;;;;;;;;;;;17.70;71.60;;;;;;4203518;28;19901;-87
2023/08/14 00:04:21;;;;;;;;;;;17.70;71.40;;;;;;4211199;28;19923;-87
2023/08/14 00:06:42;;;;;;;;;;;17.70;71.30;;;;;;4181330;28;20003;-84
2023/08/14 00:09:03;;;;;;;;;;;17.70;72.30;;;;;;4181827;28;19920;-84
2023/08/14 00:11:24;;;;;;;;;;;17.70;71.80;;;;;;4186618;28;19928;-84
2023/08/14 00:14:02;;;;;;;;;;;17.70;71.90;;;;;;4185504;28;20002;-84
2023/08/14 00:16:23;;;;;;;;;;;17.70;71.70;;;;;;4186744;28;19917;-84
2023/08/14 00:18:45;;;;;;;;;;;17.70;71.60;;;;;;4187460;28;19923;-84
2023/08/14 00:21:05;;;;;;;;;;;17.70;71.50;;;;;;4186137;28;19999;-84
2023/08/14 00:23:25;;;;;;;;;;;17.80;71.40;;;;;;4179592;28;19912;-84
2023/08/14 00:25:46;;;;;;;;;;;17.70;71.60;;;;;;4189569;28;19963;-84
2023/08/14 00:28:05;;;;;;;;;;;17.70;72.50;;;;;;4187094;28;19970;-84
2023/08/14 00:30:24;;;;;;;;;;;17.70;72.10;;;;;;4184743;28;19923;-84
2023/08/14 00:32:44;;;;;;;;;;;17.70;71.90;;;;;;4185783;28;19923;-84
2023/08/14 00:35:03;;;;;;;;;;;17.70;71.80;;;;;;4190645;28;19979;-84
2023/08/14 00:37:25;;;;;;;;;;;17.70;72.50;;;;;;4185267;28;19924;-86
2023/08/14 00:39:45;;;;;;;;;;;17.70;72.00;;;;;;4187347;28;19922;-86
2023/08/14 00:42:04;;;;;;;;;;;17.70;71.80;;;;;;4182710;28;19962;-86
2023/08/14 00:44:23;;;;;;;;;;;17.70;71.60;;;;;;4190828;28;19923;-85
2023/08/14 00:46:42;;;;;;;;;;;17.80;71.80;;;;;;4189233;28;19962;-86
2023/08/14 00:49:02;;;;;;;;;;;17.70;71.70;;;;;;4189089;28;21148;-86
2023/08/14 00:51:22;;;;;;;;;;;17.70;71.80;;;;;;4191960;28;19967;-86
2023/08/14 00:53:41;;;;;;;;;;;17.70;71.90;;;;;;4190344;28;19919;-86
2023/08/14 00:56:01;;;;;;;;;;;17.70;71.90;;;;;;4190826;28;19919;-86
2023/08/14 00:58:21;;;;;;;;;;;17.70;72.00;;;;;;4192330;28;19931;-87
2023/08/14 01:00:42;;;;;;;;;;;17.70;72.70;;;;;;4192680;28;20416;-88
2023/08/14 01:03:01;;;;;;;;;;;17.70;72.10;;;;;;4193421;28;20042;-86
2023/08/14 01:05:21;;;;;;;;;;;17.70;72.10;;;;;;4194373;28;19939;-83
2023/08/14 01:07:41;;;;;;;;;;;17.70;72.10;;;;;;4193047;28;19919;-86
2023/08/14 01:10:02;;;;;;;;;;;17.70;72.10;;;;;;4192175;28;20042;-86
2023/08/14 01:12:25;;;;;;;;;;;17.70;72.20;;;;;;4193738;28;19927;-86
2023/08/14 01:14:45;;;;;;;;;;;17.70;72.30;;;;;;4189811;28;19942;-86
2023/08/14 01:17:08;;;;;;;;;;;17.70;72.30;;;;;;4191743;28;19951;-86
2023/08/14 01:19:32;;;;;;;;;;;17.70;72.30;;;;;;4191820;28;19923;-86
2023/08/14 01:22:05;;;;;;;;;;;17.70;73.10;;;;;;4193251;28;19973;-86
2023/08/14 01:24:31;;;;;;;;;;;17.70;72.30;;;;;;4193514;28;19924;-86
2023/08/14 01:26:51;;;;;;;;;;;17.70;72.40;;;;;;4195923;28;19963;-87
2023/08/14 01:29:10;;;;;;;;;;;17.70;72.40;;;;;;4189540;28;20015;-87
2023/08/14 01:31:29;;;;;;;;;;;17.70;72.40;;;;;;4187819;28;19927;-83
2023/08/14 01:33:48;;;;;;;;;;;17.60;72.30;;;;;;4188271;28;19959;-86
2023/08/14 01:36:28;;;;;;;;;;;17.60;72.30;;;;;;4201898;22;19951;-89
2023/08/14 01:38:59;;;;;;;;;;;17.60;72.30;;;;;;4167613;28;20899;-87
2023/08/14 01:41:28;;;;;;;;;;;17.60;72.30;;;;;;4177399;28;20009;-86
2023/08/14 01:43:49;;;;;;;;;;;17.60;72.40;;;;;;4177318;28;19959;-85
2023/08/14 01:46:09;;;;;;;;;;;17.60;72.30;;;;;;4171806;28;19959;-86
2023/08/14 01:48:29;;;;;;;;;;;17.60;72.50;;;;;;4179066;28;19924;-88
2023/08/14 01:50:50;;;;;;;;;;;17.60;73.00;;;;;;4173214;28;19983;-86
2023/08/14 01:53:09;;;;;;;;;;;17.60;72.40;;;;;;4175738;28;19987;-86
2023/08/14 01:55:28;;;;;;;;;;;17.60;72.40;;;;;;4167197;28;19923;-86
2023/08/14 01:57:48;;;;;;;;;;;17.60;72.40;;;;;;4172011;28;20126;-89
2023/08/14 02:00:09;;;;;;;;;;;17.60;73.00;;;;;;4175569;28;19923;-86
2023/08/14 02:02:29;;;;;;;;;;;17.50;73.20;;;;;;4175328;28;19920;-87
2023/08/14 02:04:47;;;;;;;;;;;17.50;72.30;;;;;;4175412;28;19927;-86
2023/08/14 02:06:48;;;;;;;;;;;17.40;72.10;;;;;;4171085;28;19971;-86
2023/08/14 02:08:49;;;;;;;;;;;17.50;72.20;;;;;;4171717;28;19916;-86
2023/08/14 02:10:50;;;;;;;;;;;17.40;72.20;;;;;;4169728;28;19917;-88
2023/08/14 02:12:50;;;;;;;;;;;17.40;72.20;;;;;;4173120;28;20003;-86
2023/08/14 02:14:51;;;;;;;;;;;17.50;72.40;;;;;;4171942;28;19920;-86
2023/08/14 02:16:51;;;;;;;;;;;17.40;72.20;;;;;;4172992;28;19923;-86
2023/08/14 02:18:52;;;;;;;;;;;17.40;72.10;;;;;;4170760;28;19909;-87
2023/08/14 02:20:53;;;;;;;;;;;17.40;72.10;;;;;;4171908;28;19913;-86
2023/08/14 02:22:53;;;;;;;;;;;17.30;72.20;;;;;;4169736;28;19912;-86
2023/08/14 02:24:54;;;;;;;;;;;17.30;72.30;;;;;;4171341;28;19916;-86
2023/08/14 02:26:55;;;;;;;;;;;17.30;72.30;;;;;;4171041;28;19909;-86
2023/08/14 02:28:57;;;;;;;;;;;17.30;72.30;;;;;;4171550;28;19917;-87
2023/08/14 02:31:04;;;;;;;;;;;17.30;72.30;;;;;;4157976;28;19993;-87
2023/08/14 02:33:05;;;;;;;;;;;17.20;72.30;;;;;;4170008;28;20008;-86
2023/08/14 02:35:25;;;;;;;;;;;17.30;72.40;;;;;;4173571;28;19963;-86
2023/08/14 02:37:26;;;;;;;;;;;17.20;72.40;;;;;;4172377;28;19925;-86
2023/08/14 02:39:46;;;;;;;;;;;17.20;72.20;;;;;;4170389;28;19932;-88
2023/08/14 02:42:07;;;;;;;;;;;17.20;72.20;;;;;;4170333;28;19919;-86
2023/08/14 02:44:27;;;;;;;;;;;17.20;72.30;;;;;;4170624;28;19913;-86
2023/08/14 02:46:48;;;;;;;;;;;17.20;72.40;;;;;;4173509;28;19948;-86
2023/08/14 02:49:08;;;;;;;;;;;17.10;72.40;;;;;;4169191;28;19916;-86
2023/08/14 02:51:29;;;;;;;;;;;17.10;72.30;;;;;;4172632;28;19963;-87
2023/08/14 02:53:49;;;;;;;;;;;17.10;72.30;;;;;;4168653;28;19936;-87
2023/08/14 02:56:10;;;;;;;;;;;17.10;72.30;;;;;;4169402;28;19919;-86
2023/08/14 02:58:31;;;;;;;;;;;17.10;72.30;;;;;;4170751;28;19916;-86
2023/08/14 03:00:51;;;;;;;;;;;17.10;72.40;;;;;;4174262;28;19921;-86
2023/08/14 03:03:12;;;;;;;;;;;17.10;72.50;;;;;;4171449;28;19924;-86
2023/08/14 03:05:33;;;;;;;;;;;17.10;72.50;;;;;;4167644;28;19986;-86
2023/08/14 03:07:53;;;;;;;;;;;17.00;72.40;;;;;;4170802;28;19913;-89
2023/08/14 03:10:14;;;;;;;;;;;17.00;72.40;;;;;;4168689;28;19909;-86
2023/08/14 03:12:34;;;;;;;;;;;17.00;72.40;;;;;;4168804;28;19919;-86
2023/08/14 03:14:55;;;;;;;;;;;17.00;72.50;;;;;;4173012;28;20296;-86
2023/08/14 03:17:15;;;;;;;;;;;16.90;72.40;;;;;;4173992;28;19921;-87
2023/08/14 03:19:36;;;;;;;;;;;16.90;72.90;;;;;;4162955;28;20582;-86
2023/08/14 03:21:57;;;;;;;;;;;16.80;72.80;;;;;;4170532;28;19913;-87
2023/08/14 03:24:17;;;;;;;;;;;16.80;72.60;;;;;;4175337;28;19966;-86
2023/08/14 03:26:37;;;;;;;;;;;16.90;72.50;;;;;;4170904;28;19923;-86
2023/08/14 03:28:58;;;;;;;;;;;16.70;72.30;;;;;;4170320;28;19917;-86
2023/08/14 03:31:18;;;;;;;;;;;16.80;72.60;;;;;;4172621;28;19917;-86
2023/08/14 03:33:39;;;;;;;;;;;16.60;72.30;;;;;;4169475;28;20027;-89
2023/08/14 03:36:00;;;;;;;;;;;16.60;72.30;;;;;;4171763;28;19970;-85
2023/08/14 03:38:20;;;;;;;;;;;16.60;72.30;;;;;;4168666;28;20003;-86
2023/08/14 03:40:41;;;;;;;;;;;16.60;72.40;;;;;;4163787;28;20391;-86
2023/08/14 03:43:02;;;;;;;;;;;16.60;72.40;;;;;;4166127;28;19910;-86
2023/08/14 03:45:22;;;;;;;;;;;16.50;72.40;;;;;;4170595;28;19913;-86
2023/08/14 03:47:43;;;;;;;;;;;16.60;72.60;;;;;;4168495;28;19913;-84
2023/08/14 03:50:04;;;;;;;;;;;16.50;72.50;;;;;;4174379;28;19913;-86
2023/08/14 03:52:25;;;;;;;;;;;16.40;72.50;;;;;;4170458;28;20011;-86
2023/08/14 03:54:45;;;;;;;;;;;16.40;72.30;;;;;;4173628;28;19959;-86
2023/08/14 03:57:06;;;;;;;;;;;16.40;72.30;;;;;;4174824;28;19913;-86
2023/08/14 03:59:26;;;;;;;;;;;16.30;72.60;;;;;;4174300;28;19944;-86
2023/08/14 04:01:47;;;;;;;;;;;16.30;72.60;;;;;;4173414;28;19983;-87
2023/08/14 04:04:06;;;;;;;;;;;16.30;72.60;;;;;;4169935;28;19966;-86
2023/08/14 04:06:26;;;;;;;;;;;16.30;72.70;;;;;;4168992;28;19920;-86
2023/08/14 04:08:45;;;;;;;;;;;16.20;72.70;;;;;;4174479;28;19996;-86
2023/08/14 04:11:04;;;;;;;;;;;16.30;73.50;;;;;;4167976;28;19920;-85
2023/08/14 04:13:27;;;;;;;;;;;16.30;72.70;;;;;;4174770;28;20024;-86
2023/08/14 04:15:46;;;;;;;;;;;16.20;72.80;;;;;;4174552;28;19963;-87
2023/08/14 04:18:05;;;;;;;;;;;16.20;72.80;;;;;;4171501;28;19964;-86
2023/08/14 04:20:24;;;;;;;;;;;16.20;72.80;;;;;;4170637;28;19966;-87
2023/08/14 04:22:43;;;;;;;;;;;16.20;72.90;;;;;;4172884;28;19960;-86
2023/08/14 04:25:02;;;;;;;;;;;16.20;73.00;;;;;;4171110;28;19978;-86
2023/08/14 04:27:22;;;;;;;;;;;16.20;73.10;;;;;;4172496;28;19955;-86
2023/08/14 04:29:41;;;;;;;;;;;16.20;73.30;;;;;;4170993;28;19963;-85
2023/08/14 04:32:01;;;;;;;;;;;16.20;74.50;;;;;;4173506;28;19924;-88
2023/08/14 04:34:20;;;;;;;;;;;16.20;73.70;;;;;;4173561;28;20088;-86
2023/08/14 04:36:43;;;;;;;;;;;16.20;73.90;;;;;;4175397;28;19963;-86
2023/08/14 04:39:08;;;;;;;;;;;16.20;73.90;;;;;;4173275;28;19915;-86
2023/08/14 04:41:30;;;;;;;;;;;16.30;74.80;;;;;;4172752;28;19920;-86
2023/08/14 04:43:50;;;;;;;;;;;16.20;74.00;;;;;;4174850;28;20003;-86
2023/08/14 04:46:10;;;;;;;;;;;16.20;74.40;;;;;;4173396;28;19920;-86
2023/08/14 04:48:30;;;;;;;;;;;16.20;74.50;;;;;;4172297;28;19955;-86
2023/08/14 04:50:49;;;;;;;;;;;16.20;74.60;;;;;;4168188;28;19923;-86
2023/08/14 04:53:08;;;;;;;;;;;16.20;74.80;;;;;;4176498;28;19927;-86
2023/08/14 04:55:27;;;;;;;;;;;16.30;75.30;;;;;;4178737;28;19916;-86
2023/08/14 04:57:46;;;;;;;;;;;16.30;76.30;;;;;;4173489;28;20400;-86
2023/08/14 05:00:06;;;;;;;;;;;16.40;75.70;;;;;;4174637;28;19955;-87
2023/08/14 05:02:32;;;;;;;;;;;16.30;75.90;;;;;;4176188;28;19920;-85
2023/08/14 05:04:51;;;;;;;;;;;16.40;76.20;;;;;;4171889;28;20377;-87
2023/08/14 05:07:13;;;;;;;;;;;16.40;76.20;;;;;;4169318;28;20397;-88
2023/08/14 05:09:33;;;;;;;;;;;16.50;76.50;;;;;;4172766;28;19916;-87
2023/08/14 05:11:52;;;;;;;;;;;16.50;77.00;;;;;;4170401;28;20346;-86
2023/08/14 05:14:11;;;;;;;;;;;16.70;76.90;;;;;;4169318;28;19947;-86
2023/08/14 05:16:30;;;;;;;;;;;16.70;76.90;;;;;;4169062;28;19920;-87
2023/08/14 05:18:55;;;;;;;;;;;16.80;77.10;;;;;;4171910;28;19919;-87
2023/08/14 05:21:17;;;;;;;;;;;16.80;77.00;;;;;;4169449;28;19920;-86
2023/08/14 05:23:36;;;;;;;;;;;17.00;77.30;;;;;;4163357;28;19963;-85
2023/08/14 05:26:13;;;;;;;;;;;17.00;77.20;;;;;;4173104;28;19947;-86
2023/08/14 05:28:33;;;;;;;;;;;17.20;77.30;;;;;;4168033;28;19916;-85
2023/08/14 05:30:52;;;;;;;;;;;17.20;78.10;;;;;;4167444;28;20008;-87
2023/08/14 05:33:12;;;;;;;;;;;17.40;77.20;;;;;;4171643;28;19975;-85
2023/08/14 05:35:31;;;;;;;;;;;17.40;77.20;;;;;;4169334;28;19936;-86
2023/08/14 05:37:52;;;;;;;;;;;17.50;77.10;;;;;;4171162;28;19967;-86
2023/08/14 05:40:12;;;;;;;;;;;17.60;77.10;;;;;;4170716;28;19916;-86
2023/08/14 05:42:32;;;;;;;;;;;17.60;77.00;;;;;;4174123;28;19971;-85
2023/08/14 05:44:51;;;;;;;;;;;17.80;77.10;;;;;;4171359;28;20281;-85
2023/08/14 05:47:10;;;;;;;;;;;17.80;76.70;;;;;;4171779;28;20135;-85
2023/08/14 05:49:30;;;;;;;;;;;17.80;77.40;;;;;;4172721;28;20319;-86
2023/08/14 05:51:49;;;;;;;;;;;17.90;77.30;;;;;;4170368;28;19940;-89
2023/08/14 05:54:08;;;;;;;;;;;18.00;76.40;;;;;;4169299;28;19924;-86
2023/08/14 05:56:28;;;;;;;;;;;18.00;76.30;;;;;;4168285;28;19919;-84
2023/08/14 05:58:47;;;;;;;;;;;18.10;76.30;;;;;;4169724;28;19975;-87
2023/08/14 06:01:06;;;;;;;;;;;18.10;76.30;;;;;;4170171;28;19916;-85
2023/08/14 06:03:26;;;;;;;;;;;18.20;77.10;;;;;;4170130;28;20393;-87
2023/08/14 06:05:46;;;;;;;;;;;18.20;76.40;;;;;;4169130;28;19989;-87
2023/08/14 06:08:05;;;;;;;;;;;18.20;76.20;;;;;;4169777;28;19955;-85
2023/08/14 06:10:25;;;;;;;;;;;18.30;76.10;;;;;;4173028;28;20055;-85
2023/08/14 06:12:44;;;;;;;;;;;18.40;76.00;;;;;;4169524;28;20018;-88
2023/08/14 06:15:04;;;;;;;;;;;18.40;75.80;;;;;;4168202;28;20007;-85
2023/08/14 06:17:23;;;;;;;;;;;18.40;75.80;;;;;;4170167;28;19924;-86
2023/08/14 06:19:42;;;;;;;;;;;18.50;76.50;;;;;;4171129;28;19919;-85
2023/08/14 06:22:01;;;;;;;;;;;18.60;75.90;;;;;;4168289;28;19924;-85
2023/08/14 06:24:21;;;;;;;;;;;18.70;76.00;;;;;;4171981;28;19924;-85
2023/08/14 06:26:40;;;;;;;;;;;18.70;76.00;;;;;;4169293;28;20378;-85
2023/08/14 06:28:59;;;;;;;;;;;18.80;76.10;;;;;;4170416;28;20436;-86
2023/08/14 06:31:19;;;;;;;;;;;19.00;76.00;;;;;;4170815;28;20409;-86
2023/08/14 06:33:38;;;;;;;;;;;19.00;75.70;;;;;;4166250;28;19928;-86
2023/08/14 06:35:57;;;;;;;;;;;19.10;75.80;;;;;;4171623;28;19923;-84
2023/08/14 06:38:16;;;;;;;;;;;19.10;75.70;;;;;;4172251;28;20019;-85
2023/08/14 06:40:35;;;;;;;;;;;19.20;75.80;;;;;;4169384;28;19998;-85
2023/08/14 06:42:55;;;;;;;;;;;19.30;75.90;;;;;;4170117;28;19924;-85
2023/08/14 06:45:15;;;;;;;;;;;19.30;75.80;;;;;;4170702;28;20003;-87
2023/08/14 06:47:41;;;;;;;;;;;19.40;75.70;;;;;;4172404;28;19978;-85
2023/08/14 06:50:01;;;;;;;;;;;19.50;75.60;;;;;;4168941;28;19923;-86
2023/08/14 06:52:20;;;;;;;;;;;19.60;75.60;;;;;;4170723;28;20050;-87
2023/08/14 06:54:40;;;;;;;;;;;19.60;75.60;;;;;;4171574;28;19939;-87
2023/08/14 06:57:01;;;;;;;;;;;19.70;75.70;;;;;;4174713;28;22262;-87
2023/08/14 06:59:20;;;;;;;;;;;19.70;75.50;;;;;;4171663;28;20058;-85
2023/08/14 07:01:40;;;;;;;;;;;19.80;75.50;;;;;;4168554;28;20401;-84
2023/08/14 07:04:00;;;;;;;;;;;19.90;76.20;;;;;;4172839;28;19968;-85
2023/08/14 07:06:19;;;;;;;;;;;20.00;76.10;;;;;;4169789;28;19959;-86
2023/08/14 07:08:38;;;;;;;;;;;20.10;75.30;;;;;;4172659;28;19923;-85
2023/08/14 07:10:58;;;;;;;;;;;20.20;75.30;;;;;;4175240;28;19920;-87
2023/08/14 07:13:17;;;;;;;;;;;20.20;75.20;;;;;;4169623;28;19928;-84
2023/08/14 07:15:37;;;;;;;;;;;20.30;75.20;;;;;;4171757;28;19915;-84
2023/08/14 07:17:56;;;;;;;;;;;20.40;75.10;;;;;;4165812;28;19967;-85
2023/08/14 07:19:56;;;;;;;;;;;20.40;74.80;;;;;;4170272;28;19912;-85
2023/08/14 07:21:57;;;;;;;;;;;20.60;74.60;;;;;;4166958;28;19909;-85
2023/08/14 07:24:18;;;;;;;;;;;20.60;74.30;;;;;;4168485;28;19979;-85
2023/08/14 07:26:39;;;;;;;;;;;20.70;72.90;;;;;;4172663;28;20511;-87
2023/08/14 07:28:59;;;;;;;;;;;20.70;71.80;;;;;;4167632;28;20314;-85
2023/08/14 07:31:20;;;;;;;;;;;20.90;69.90;;;;;;4170994;28;20325;-86
2023/08/14 07:33:29;;;;;;;;;;;20.90;69.50;;;;;;4168257;28;19944;-87
2023/08/14 07:35:49;;;;;;;;;;;20.90;70.10;;;;;;4173163;28;20668;-86
2023/08/14 07:38:12;;;;;;;;;;;21.00;70.10;;;;;;4217560;22;19956;-83
2023/08/14 07:40:32;;;;;;;;;;;21.10;70.40;;;;;;4187882;28;19963;-82
2023/08/14 07:42:53;;;;;;;;;;;21.10;70.40;;;;;;4190407;28;19917;-83
2023/08/14 07:45:14;;;;;;;;;;;21.30;67.80;;;;;;4193521;28;20366;-86
2023/08/14 07:47:34;;;;;;;;;;;21.20;65.10;;;;;;4188093;28;19959;-87
2023/08/14 07:49:55;;;;;;;;;;;21.30;67.20;;;;;;4180746;28;20310;-84
2023/08/14 07:52:15;;;;;;;;;;;21.30;67.00;;;;;;4188821;28;20005;-85
2023/08/14 07:54:36;;;;;;;;;;;21.40;65.10;;;;;;4172959;28;19995;-84
2023/08/14 07:56:56;;;;;;;;;;;21.50;65.50;;;;;;4179475;28;20267;-85
2023/08/14 07:59:17;;;;;;;;;;;21.50;66.70;;;;;;4185490;28;20269;-84
2023/08/14 08:01:37;;;;;;;;;;;21.60;67.00;;;;;;4178894;28;20307;-84
2023/08/14 08:03:59;;;;;;;;;;;21.60;67.40;;;;;;4185491;28;20374;-85
2023/08/14 08:06:19;;;;;;;;;;;21.70;67.60;;;;;;4188839;28;19910;-84
2023/08/14 08:08:40;;;;;;;;;;;21.80;67.30;;;;;;4185059;28;19920;-85
2023/08/14 08:11:00;;;;;;;;;;;21.80;64.20;;;;;;4182661;28;20382;-85
2023/08/14 08:13:21;;;;;;;;;;;21.90;63.00;;;;;;4190276;28;19944;-85
2023/08/14 08:15:41;;;;;;;;;;;21.90;63.60;;;;;;4179187;28;20353;-85
2023/08/14 08:18:02;;;;;;;;;;;22.00;63.00;;;;;;4188510;28;20619;-85
2023/08/14 08:20:22;;;;;;;;;;;22.00;63.90;;;;;;4188206;28;19912;-86
2023/08/14 08:22:43;;;;;;;;;;;22.10;64.30;;;;;;4188540;28;19940;-86
2023/08/14 08:25:04;;;;;;;;;;;22.10;65.20;;;;;;4183329;28;19972;-85
2023/08/14 08:27:25;;;;;;;;;;;22.20;64.90;;;;;;4189705;28;19986;-84
2023/08/14 08:29:45;;;;;;;;;;;22.20;62.80;;;;;;4194035;28;19923;-85
2023/08/14 08:32:06;;;;;;;;;;;22.30;61.20;;;;;;4181844;28;19993;-84
2023/08/14 08:34:26;;;;;;;;;;;22.40;60.00;;;;;;4185865;28;20489;-85
2023/08/14 08:36:46;;;;;;;;;;;22.40;59.60;;;;;;4186802;28;19934;-84
2023/08/14 08:39:07;;;;;;;;;;;22.40;59.30;;;;;;4182368;28;19917;-85
2023/08/14 08:41:31;;;;;;;;;;;22.40;59.80;;;;;;4187140;28;19913;-84
2023/08/14 08:44:07;;;;;;;;;;;22.50;58.20;;;;;;4188440;28;19920;-86
2023/08/14 08:46:28;;;;;;;;;;;22.50;58.70;;;;;;4191911;28;19915;-86
2023/08/14 08:48:49;;;;;;;;;;;22.50;59.30;;;;;;4197330;28;19954;-85
2023/08/14 08:51:10;;;;;;;;;;;22.60;59.00;;;;;;4191704;28;19966;-85
2023/08/14 08:53:30;;;;;;;;;;;22.70;58.70;;;;;;4191938;28;19928;-85
2023/08/14 08:55:50;;;;;;;;;;;22.70;58.90;;;;;;4177610;28;20025;-85
2023/08/14 08:58:10;;;;;;;;;;;22.80;59.60;;;;;;4190955;28;19947;-86
2023/08/14 09:00:29;;;;;;;;;;;22.80;60.70;;;;;;4182610;28;20601;-85
2023/08/14 09:02:48;;;;;;;;;;;22.90;58.60;;;;;;4188335;28;19916;-85
2023/08/14 09:05:08;;;;;;;;;;;22.90;59.10;;;;;;4192115;28;19984;-85
2023/08/14 09:07:27;;;;;;;;;;;23.00;58.00;;;;;;4191722;28;19921;-87
2023/08/14 09:09:46;;;;;;;;;;;23.00;58.50;;;;;;4186580;28;20294;-86
2023/08/14 09:12:06;;;;;;;;;;;23.10;57.50;;;;;;4189684;28;19923;-85
2023/08/14 09:14:25;;;;;;;;;;;23.20;55.00;;;;;;4185763;28;20333;-85
2023/08/14 09:16:44;;;;;;;;;;;23.20;55.90;;;;;;4182303;28;19927;-85
2023/08/14 09:19:03;;;;;;;;;;;23.40;57.60;;;;;;4180881;28;19920;-85
2023/08/14 09:21:22;;;;;;;;;;;23.40;57.00;;;;;;4189775;28;19919;-85
2023/08/14 09:23:42;;;;;;;;;;;23.50;58.60;;;;;;4177368;28;20417;-85
2023/08/14 09:26:02;;;;;;;;;;;23.60;56.60;;;;;;4178066;28;20006;-86
2023/08/14 09:28:21;;;;;;;;;;;23.70;54.20;;;;;;4175749;28;19919;-87
2023/08/14 09:30:41;;;;;;;;;;;23.80;56.40;;;;;;4180646;28;19916;-86
2023/08/14 09:33:00;;;;;;;;;;;23.90;56.40;;;;;;4178687;28;19970;-86
2023/08/14 09:35:19;;;;;;;;;;;24.00;55.20;;;;;;4178983;28;20451;-85
2023/08/14 09:37:40;;;;;;;;;;;24.10;54.30;;;;;;4177386;28;20412;-86
2023/08/14 09:40:15;;;;;;;;;;;24.10;55.10;;;;;;4176270;28;19923;-86
2023/08/14 09:42:35;;;;;;;;;;;24.20;56.40;;;;;;4180611;28;20442;-86
2023/08/14 09:44:54;;;;;;;;;;;24.30;57.00;;;;;;4179482;28;19928;-85
2023/08/14 09:47:14;;;;;;;;;;;24.40;57.00;;;;;;4181606;28;19915;-85
2023/08/14 09:49:33;;;;;;;;;;;24.50;57.60;;;;;;4177909;28;20393;-87
2023/08/14 09:51:56;;;;;;;;;;;24.60;56.10;;;;;;4178337;28;19955;-86
2023/08/14 09:54:15;;;;;;;;;;;24.60;53.10;;;;;;4179748;28;19917;-86
2023/08/14 09:56:35;;;;;;;;;;;24.70;55.00;;;;;;4174492;28;20390;-87
2023/08/14 09:58:54;;;;;;;;;;;24.80;54.60;;;;;;4182539;28;20031;-86
2023/08/14 10:01:14;;;;;;;;;;;24.80;55.30;;;;;;4179847;28;19971;-87
2023/08/14 10:03:34;;;;;;;;;;;24.80;54.10;;;;;;4182308;28;19931;-86
2023/08/14 10:05:53;;;;;;;;;;;24.90;55.30;;;;;;4181369;28;20317;-86
2023/08/14 10:08:13;;;;;;;;;;;24.90;56.20;;;;;;4178736;28;20008;-86
2023/08/14 10:10:33;;;;;;;;;;;25.00;54.00;;;;;;4173575;28;19920;-86
2023/08/14 10:12:56;;;;;;;;;;;25.00;54.50;;;;;;4184850;28;19920;-87
2023/08/14 10:15:19;;;;;;;;;;;25.00;55.00;;;;;;4177296;28;19961;-87
2023/08/14 10:17:43;;;;;;;;;;;25.10;54.60;;;;;;4181009;28;20635;-86
2023/08/14 10:20:03;;;;;;;;;;;25.10;52.70;;;;;;4178814;28;19970;-87
2023/08/14 10:22:23;;;;;;;;;;;25.10;52.80;;;;;;4182333;28;19919;-87
2023/08/14 10:24:44;;;;;;;;;;;25.10;51.40;;;;;;4183385;28;19919;-86
2023/08/14 10:27:04;;;;;;;;;;;25.20;52.40;;;;;;4169840;28;19923;-86
2023/08/14 10:29:24;;;;;;;;;;;25.20;52.30;;;;;;4179079;28;19981;-86
2023/08/14 10:31:44;;;;;;;;;;;25.30;52.50;;;;;;4178576;28;19920;-86
2023/08/14 10:34:03;;;;;;;;;;;25.30;52.50;;;;;;4172824;28;19982;-86
2023/08/14 10:36:26;;;;;;;;;;;25.30;50.90;;;;;;4177395;28;19920;-86
2023/08/14 10:38:48;;;;;;;;;;;25.30;51.00;;;;;;4181792;28;20401;-86
2023/08/14 10:41:09;;;;;;;;;;;25.40;53.20;;;;;;4175596;28;19921;-86
2023/08/14 10:43:28;;;;;;;;;;;25.40;53.50;;;;;;4183470;28;19916;-86
2023/08/14 10:45:50;;;;;;;;;;;25.50;53.40;;;;;;4177257;28;19927;-88
2023/08/14 10:48:09;;;;;;;;;;;25.50;54.30;;;;;;4176809;28;19920;-86
2023/08/14 10:50:29;;;;;;;;;;;25.60;51.00;;;;;;4170956;28;19919;-87
2023/08/14 10:52:48;;;;;;;;;;;25.60;50.70;;;;;;4175793;28;19919;-86
2023/08/14 10:55:13;;;;;;;;;;;25.60;52.80;;;;;;4177269;28;19916;-86
2023/08/14 10:57:33;;;;;;;;;;;25.60;50.10;;;;;;4176428;28;19923;-86
2023/08/14 10:59:56;;;;;;;;;;;25.60;51.90;;;;;;4179369;28;19920;-86
2023/08/14 11:02:15;;;;;;;;;;;25.70;52.20;;;;;;4176937;28;19928;-87
2023/08/14 11:04:36;;;;;;;;;;;25.60;51.70;;;;;;4171109;28;19916;-86
2023/08/14 11:06:58;;;;;;;;;;;25.70;51.60;;;;;;4184844;28;19920;-86
2023/08/14 11:09:19;;;;;;;;;;;25.60;51.50;;;;;;4171388;28;20002;-86
2023/08/14 11:11:43;;;;;;;;;;;25.60;52.60;;;;;;4182859;28;20389;-86
2023/08/14 11:14:02;;;;;;;;;;;25.60;52.40;;;;;;4180125;28;19999;-86
2023/08/14 11:16:21;;;;;;;;;;;25.60;51.80;;;;;;4179292;28;20278;-87
2023/08/14 11:18:40;;;;;;;;;;;25.60;51.80;;;;;;4178591;28;19919;-86
2023/08/14 11:21:00;;;;;;;;;;;25.60;51.90;;;;;;4171770;28;19917;-87
2023/08/14 11:23:19;;;;;;;;;;;25.70;52.00;;;;;;4181845;28;20039;-85
2023/08/14 11:25:39;;;;;;;;;;;25.70;50.90;;;;;;4178924;28;20384;-86
2023/08/14 11:27:58;;;;;;;;;;;25.70;52.20;;;;;;4170927;28;19927;-86
2023/08/14 11:30:18;;;;;;;;;;;25.70;53.00;;;;;;4181095;28;19980;-86
2023/08/14 11:32:38;;;;;;;;;;;25.70;52.80;;;;;;4174895;28;19919;-87
2023/08/14 11:34:57;;;;;;;;;;;25.70;51.90;;;;;;4177453;28;19955;-86
2023/08/14 11:37:16;;;;;;;;;;;25.70;51.90;;;;;;4176513;28;19924;-87
2023/08/14 11:39:35;;;;;;;;;;;25.80;51.10;;;;;;4176287;28;19923;-87
2023/08/14 11:41:54;;;;;;;;;;;25.80;52.00;;;;;;4178595;28;20435;-86
2023/08/14 11:44:14;;;;;;;;;;;25.80;52.70;;;;;;4177137;28;19962;-86
2023/08/14 11:46:33;;;;;;;;;;;25.90;52.40;;;;;;4181572;28;19974;-88
2023/08/14 11:48:52;;;;;;;;;;;25.90;52.40;;;;;;4176988;28;19995;-86
2023/08/14 11:51:11;;;;;;;;;;;25.90;52.40;;;;;;4171910;28;19916;-87
2023/08/14 11:53:31;;;;;;;;;;;26.00;51.30;;;;;;4181926;28;19935;-86
2023/08/14 11:55:50;;;;;;;;;;;26.00;51.70;;;;;;4184220;28;19947;-86
2023/08/14 11:58:11;;;;;;;;;;;26.00;51.40;;;;;;4173307;28;19916;-87
2023/08/14 12:00:30;;;;;;;;;;;26.00;50.10;;;;;;4177143;28;19920;-87
2023/08/14 12:02:51;;;;;;;;;;;26.10;51.20;;;;;;4179198;28;20521;-87
2023/08/14 12:05:10;;;;;;;;;;;26.10;51.00;;;;;;4180372;28;19920;-86
2023/08/14 12:07:29;;;;;;;;;;;26.10;50.60;;;;;;4174848;28;19963;-85
2023/08/14 12:09:49;;;;;;;;;;;26.10;50.00;;;;;;4173788;28;19924;-87
2023/08/14 12:12:10;;;;;;;;;;;26.20;50.40;;;;;;4183974;28;20285;-86
2023/08/14 12:14:39;;;;;;;;;;;26.20;50.50;;;;;;4212993;28;19988;-88
2023/08/14 12:17:03;;;;;;;;;;;26.20;51.30;;;;;;4197428;28;19904;-87
2023/08/14 12:19:22;;;;;;;;;;;26.20;51.40;;;;;;4180740;28;19916;-86
2023/08/14 12:21:41;;;;;;;;;;;26.30;49.10;;;;;;4172053;28;20409;-87
2023/08/14 12:24:01;;;;;;;;;;;26.30;51.20;;;;;;4177795;28;20378;-86
2023/08/14 12:26:20;;;;;;;;;;;26.30;50.20;;;;;;4173704;28;19995;-86
2023/08/14 12:28:40;;;;;;;;;;;26.30;47.70;;;;;;4177220;28;19971;-88
2023/08/14 12:31:00;;;;;;;;;;;26.40;50.30;;;;;;4179123;28;19954;-88
2023/08/14 12:33:19;;;;;;;;;;;26.40;49.20;;;;;;4177963;28;20011;-87
2023/08/14 12:35:38;;;;;;;;;;;26.40;49.60;;;;;;4180654;28;19955;-87
2023/08/14 12:37:59;;;;;;;;;;;26.40;50.00;;;;;;4181809;28;19974;-86
2023/08/14 12:40:18;;;;;;;;;;;26.40;50.10;;;;;;4175472;28;19967;-86
2023/08/14 12:42:37;;;;;;;;;;;26.40;49.50;;;;;;4178707;28;20007;-86
2023/08/14 12:44:56;;;;;;;;;;;26.40;46.80;;;;;;4177024;28;19967;-87
2023/08/14 12:47:16;;;;;;;;;;;26.40;47.90;;;;;;4185147;28;19988;-88
2023/08/14 12:49:36;;;;;;;;;;;26.40;46.50;;;;;;4180257;28;19920;-86
2023/08/14 12:51:59;;;;;;;;;;;26.40;48.60;;;;;;4172601;28;19919;-86
2023/08/14 12:54:19;;;;;;;;;;;26.40;49.50;;;;;;4186041;28;19971;-85
2023/08/14 12:56:38;;;;;;;;;;;26.30;49.40;;;;;;4183815;28;20455;-87
2023/08/14 12:58:58;;;;;;;;;;;26.40;49.90;;;;;;4182832;28;19986;-86
2023/08/14 13:01:18;;;;;;;;;;;26.40;49.80;;;;;;4180802;28;20409;-87
2023/08/14 13:03:37;;;;;;;;;;;26.40;50.40;;;;;;4177818;28;20016;-87
2023/08/14 13:05:56;;;;;;;;;;;26.40;50.60;;;;;;4178197;28;20409;-86
2023/08/14 13:08:12;;;;;;;;;;;26.50;48.00;;;;;;4176708;28;19965;-87
2023/08/14 13:10:32;;;;;;;;;;;26.50;45.40;;;;;;4180841;28;19919;-87
2023/08/14 13:12:54;;;;;;;;;;;26.50;46.90;;;;;;4180970;28;19923;-87
2023/08/14 13:15:13;;;;;;;;;;;26.50;46.80;;;;;;4177219;28;20377;-86
2023/08/14 13:17:32;;;;;;;;;;;26.50;46.80;;;;;;4185793;28;19916;-86
2023/08/14 13:19:52;;;;;;;;;;;26.40;47.80;;;;;;4178321;28;20274;-87
2023/08/14 13:22:12;;;;;;;;;;;26.40;48.00;;;;;;4175463;28;19955;-87
2023/08/14 13:24:32;;;;;;;;;;;26.40;48.40;;;;;;4181528;28;19916;-87
2023/08/14 13:26:51;;;;;;;;;;;26.40;48.00;;;;;;4180467;28;19919;-87
2023/08/14 13:29:10;;;;;;;;;;;26.40;48.30;;;;;;4179569;28;19958;-87
2023/08/14 13:31:29;;;;;;;;;;;26.40;48.70;;;;;;4177333;28;19962;-87